Time;durP1;ratioP1;P1;durP2;ratioP2;P2;SDS_P1;SDS_P2;PMS_P1;PMS_P2;Temp;Humidity;BMP_temperature;BMP_pressure;BME280_temperature;BME280_humidity;BME280_pressure;Samples;Min_cycle;Max_cycle;Signal;HPM_P1;HPM_P2
2023/09/12 00:00:23;;;;;;;1.55;1.10;;;22.10;66.20;;;;;;6230424;28;20033;-67
2023/09/12 00:03:23;;;;;;;2.17;1.40;;;22.10;66.30;;;;;;6244293;28;20041;-67
2023/09/12 00:06:24;;;;;;;2.13;1.27;;;22.10;66.40;;;;;;6223198;28;20637;-67
2023/09/12 00:09:25;;;;;;;1.58;1.20;;;22.10;66.20;;;;;;6221800;28;20022;-67
2023/09/12 00:12:26;;;;;;;1.35;1.25;;;22.10;66.30;;;;;;6243704;28;20057;-67
2023/09/12 00:15:26;;;;;;;1.42;1.30;;;22.10;66.30;;;;;;6231379;28;20026;-67
2023/09/12 00:18:27;;;;;;;1.77;1.30;;;22.10;66.30;;;;;;6219169;28;20022;-67
2023/09/12 00:21:27;;;;;;;1.48;1.17;;;22.10;66.30;;;;;;6219685;28;20073;-67
2023/09/12 00:24:28;;;;;;;1.48;1.38;;;22.10;66.30;;;;;;6219216;28;20030;-67
2023/09/12 00:27:29;;;;;;;2.05;1.25;;;22.10;66.30;;;;;;6222878;28;20508;-67
2023/09/12 00:30:29;;;;;;;1.75;1.40;;;22.10;66.40;;;;;;6219224;28;20022;-67
2023/09/12 00:33:30;;;;;;;1.70;1.23;;;22.10;66.30;;;;;;6219139;28;20033;-67
2023/09/12 00:36:32;;;;;;;1.13;1.02;;;22.10;66.30;;;;;;6221701;28;20017;-67
2023/09/12 00:39:33;;;;;;;1.83;1.60;;;22.10;66.40;;;;;;6219495;28;20112;-67
2023/09/12 00:42:34;;;;;;;1.70;1.20;;;22.10;66.30;;;;;;6221435;28;20084;-67
2023/09/12 00:45:34;;;;;;;1.88;1.20;;;22.10;66.30;;;;;;6224812;28;20036;-67
2023/09/12 00:48:37;;;;;;;1.45;1.35;;;22.10;66.40;;;;;;6224180;28;20025;-67
2023/09/12 00:51:38;;;;;;;1.63;1.40;;;22.10;66.30;;;;;;6212704;28;20034;-67
2023/09/12 00:54:40;;;;;;;1.52;1.40;;;22.10;66.30;;;;;;6199825;28;20486;-67
2023/09/12 00:57:41;;;;;;;2.83;1.25;;;22.10;66.30;;;;;;6226499;28;20022;-67
2023/09/12 01:00:42;;;;;;;2.15;1.45;;;22.10;66.40;;;;;;6228932;28;20060;-67
2023/09/12 01:03:43;;;;;;;1.92;1.50;;;22.10;66.30;;;;;;6225281;28;20423;-67
2023/09/12 01:06:43;;;;;;;2.03;1.50;;;22.10;66.40;;;;;;6223209;28;20559;-67
2023/09/12 01:09:44;;;;;;;1.85;1.33;;;22.10;66.40;;;;;;6223892;28;20512;-67
2023/09/12 01:12:45;;;;;;;2.80;1.60;;;22.10;66.30;;;;;;6229070;28;20135;-67
2023/09/12 01:15:46;;;;;;;1.13;1.02;;;22.10;66.40;;;;;;6223330;28;20026;-66
2023/09/12 01:18:46;;;;;;;1.92;1.50;;;22.10;66.40;;;;;;6223138;28;20384;-67
2023/09/12 01:22:11;;;;;;;1.63;1.50;;;22.10;66.40;;;;;;6235400;28;20033;-67
2023/09/12 01:25:32;;;;;;;1.67;1.45;;;22.10;66.50;;;;;;6223367;28;20122;-67
2023/09/12 01:28:34;;;;;;;1.30;1.20;;;22.10;66.40;;;;;;6212270;28;20060;-67
2023/09/12 01:31:39;;;;;;;1.60;1.35;;;22.10;66.40;;;;;;6231610;28;20026;-67
2023/09/12 01:34:40;;;;;;;1.60;1.30;;;22.10;66.40;;;;;;6224980;28;20030;-67
2023/09/12 01:37:41;;;;;;;1.75;1.40;;;22.10;66.40;;;;;;6222501;28;20029;-67
2023/09/12 01:40:46;;;;;;;1.83;1.40;;;22.10;66.40;;;;;;6223058;28;20033;-67
2023/09/12 01:43:50;;;;;;;1.55;1.30;;;22.10;66.40;;;;;;6214020;28;20088;-67
2023/09/12 01:46:53;;;;;;;2.28;1.50;;;22.10;66.40;;;;;;6231282;28;20071;-67
2023/09/12 01:49:56;;;;;;;1.52;1.42;;;22.10;66.40;;;;;;6222818;28;20036;-68
2023/09/12 01:52:58;;;;;;;1.75;1.50;;;22.10;66.40;;;;;;6230610;28;20116;-67
2023/09/12 01:55:59;;;;;;;1.70;1.30;;;22.10;66.40;;;;;;6222484;28;20473;-67
2023/09/12 01:59:00;;;;;;;1.70;1.45;;;22.10;66.40;;;;;;6238027;28;20704;-67
2023/09/12 02:02:01;;;;;;;1.80;1.50;;;22.10;66.40;;;;;;6222402;28;20032;-67
2023/09/12 02:05:10;;;;;;;1.90;1.40;;;22.10;66.40;;;;;;6221979;28;20032;-67
2023/09/12 02:08:11;;;;;;;2.08;1.60;;;22.10;66.40;;;;;;6236607;28;20037;-67
2023/09/12 02:11:11;;;;;;;1.65;1.40;;;22.10;66.40;;;;;;6222105;28;20022;-67
2023/09/12 02:14:12;;;;;;;1.80;1.35;;;22.10;66.40;;;;;;6222220;28;20096;-67
2023/09/12 02:17:12;;;;;;;1.60;1.40;;;22.10;66.40;;;;;;6229408;28;20025;-67
2023/09/12 02:20:13;;;;;;;2.00;1.70;;;22.10;66.40;;;;;;6227600;28;20060;-67
2023/09/12 02:23:14;;;;;;;1.50;1.30;;;22.10;66.40;;;;;;6221832;28;20500;-67
2023/09/12 02:26:14;;;;;;;2.00;1.60;;;22.10;66.40;;;;;;6221600;28;20026;-67
2023/09/12 02:29:15;;;;;;;2.30;1.73;;;22.10;66.40;;;;;;6241646;28;20037;-67
2023/09/12 02:32:15;;;;;;;2.30;1.73;;;22.10;66.40;;;;;;6221685;28;20056;-67
2023/09/12 02:35:16;;;;;;;1.70;1.35;;;22.10;66.40;;;;;;6221525;28;20084;-67
2023/09/12 02:38:18;;;;;;;1.95;1.58;;;22.10;66.40;;;;;;6235016;28;20025;-67
2023/09/12 02:41:18;;;;;;;2.38;1.67;;;22.10;66.40;;;;;;6226064;28;20676;-67
2023/09/12 02:44:19;;;;;;;1.98;1.60;;;22.10;66.40;;;;;;6221434;28;20029;-67
2023/09/12 02:47:19;;;;;;;2.00;1.50;;;22.10;66.40;;;;;;6225458;28;20009;-67
2023/09/12 02:50:20;;;;;;;1.30;1.20;;;22.10;66.40;;;;;;6234459;28;20054;-67
2023/09/12 02:53:20;;;;;;;1.73;1.58;;;22.10;66.40;;;;;;6233213;28;20436;-67
2023/09/12 02:56:21;;;;;;;1.73;1.30;;;22.10;66.40;;;;;;6225499;28;20029;-67
2023/09/12 02:59:22;;;;;;;1.73;1.60;;;22.10;66.40;;;;;;6240151;28;20488;-67
2023/09/12 03:02:23;;;;;;;1.80;1.52;;;22.10;66.40;;;;;;6224746;28;20041;-67
2023/09/12 03:05:24;;;;;;;1.30;1.20;;;22.10;66.40;;;;;;6220012;28;20037;-68
2023/09/12 03:08:24;;;;;;;2.67;1.33;;;22.10;66.40;;;;;;6230911;28;20025;-68
2023/09/12 03:11:28;;;;;;;1.50;1.30;;;22.10;66.40;;;;;;6232638;28;20088;-67
2023/09/12 03:14:28;;;;;;;1.60;1.40;;;22.10;66.40;;;;;;6220648;28;20589;-66
2023/09/12 03:17:29;;;;;;;2.03;1.58;;;22.10;66.40;;;;;;6221575;28;20022;-67
2023/09/12 03:20:30;;;;;;;1.83;1.38;;;22.10;66.40;;;;;;6240117;28;20021;-67
2023/09/12 03:23:30;;;;;;;1.77;1.42;;;22.10;66.40;;;;;;6220498;28;20075;-67
2023/09/12 03:26:33;;;;;;;2.72;1.67;;;22.10;66.40;;;;;;6220607;28;20052;-67
2023/09/12 03:29:34;;;;;;;1.60;1.40;;;22.10;66.40;;;;;;6237404;28;20029;-67
2023/09/12 03:32:34;;;;;;;1.85;1.40;;;22.10;66.50;;;;;;6222371;28;20030;-67
2023/09/12 03:35:36;;;;;;;1.88;1.58;;;22.10;66.40;;;;;;6220420;28;20037;-67
2023/09/12 03:38:37;;;;;;;1.83;1.50;;;22.10;66.50;;;;;;6227738;28;20029;-67
2023/09/12 03:41:37;;;;;;;1.70;1.60;;;22.10;66.40;;;;;;6238517;28;20121;-68
2023/09/12 03:44:38;;;;;;;1.83;1.65;;;22.10;66.50;;;;;;6219704;28;20044;-67
2023/09/12 03:47:39;;;;;;;2.05;1.50;;;22.10;66.40;;;;;;6219656;28;20018;-67
2023/09/12 03:50:39;;;;;;;1.98;1.52;;;22.10;66.40;;;;;;6239717;28;20049;-67
2023/09/12 03:53:40;;;;;;;1.85;1.50;;;22.10;66.40;;;;;;6225790;28;20021;-67
2023/09/12 03:56:40;;;;;;;1.85;1.40;;;22.10;66.40;;;;;;6235080;28;20033;-67
2023/09/12 04:00:37;;;;;;;1.70;1.50;;;22.10;66.50;;;;;;6234121;28;20053;-67
2023/09/12 04:03:37;;;;;;;1.88;1.52;;;22.10;66.50;;;;;;6239546;28;20029;-67
2023/09/12 04:06:38;;;;;;;1.80;1.60;;;22.10;66.40;;;;;;6219625;28;20727;-67
2023/09/12 04:09:39;;;;;;;1.83;1.48;;;22.10;66.40;;;;;;6231610;28;20029;-67
2023/09/12 04:12:40;;;;;;;1.75;1.38;;;22.10;66.40;;;;;;6237669;28;20046;-67
2023/09/12 04:15:40;;;;;;;2.20;1.52;;;22.10;66.40;;;;;;6219649;28;20030;-67
2023/09/12 04:18:41;;;;;;;2.13;1.77;;;22.10;66.40;;;;;;6222579;28;20021;-67
2023/09/12 04:21:41;;;;;;;1.90;1.67;;;22.10;66.40;;;;;;6243992;28;20350;-67
2023/09/12 04:24:42;;;;;;;2.05;1.55;;;22.10;66.50;;;;;;6228988;28;20028;-66
2023/09/12 04:27:43;;;;;;;1.85;1.42;;;22.10;66.40;;;;;;6219315;28;20080;-67
2023/09/12 04:30:43;;;;;;;1.70;1.58;;;22.10;66.40;;;;;;6237579;28;20500;-67
2023/09/12 04:33:44;;;;;;;1.85;1.60;;;22.10;66.40;;;;;;6237284;28;20048;-67
2023/09/12 04:36:44;;;;;;;1.77;1.52;;;22.10;66.40;;;;;;6219410;28;20375;-67
2023/09/12 04:39:45;;;;;;;1.85;1.42;;;22.10;66.40;;;;;;6228180;28;20034;-67
2023/09/12 04:42:46;;;;;;;2.03;1.63;;;22.10;66.40;;;;;;6243357;28;20049;-67
2023/09/12 04:45:46;;;;;;;2.10;1.60;;;22.10;66.40;;;;;;6207184;28;20122;-67
2023/09/12 04:48:47;;;;;;;2.00;1.48;;;22.10;66.40;;;;;;6225807;28;20068;-66
2023/09/12 04:51:47;;;;;;;2.58;1.80;;;22.10;66.40;;;;;;6237806;28;20022;-67
2023/09/12 04:54:48;;;;;;;2.20;1.70;;;22.10;66.40;;;;;;6233361;28;20033;-67
2023/09/12 04:57:49;;;;;;;2.08;1.70;;;22.10;66.40;;;;;;6241833;28;20021;-67
2023/09/12 05:00:49;;;;;;;2.30;1.90;;;22.10;66.40;;;;;;6224031;28;20025;-67
2023/09/12 05:03:50;;;;;;;1.98;1.58;;;22.10;66.40;;;;;;6237904;28;20022;-67
2023/09/12 05:06:50;;;;;;;2.10;1.75;;;22.10;66.40;;;;;;6231323;28;20611;-67
2023/09/12 05:09:51;;;;;;;2.80;1.60;;;22.10;66.40;;;;;;6232082;28;20045;-67
2023/09/12 05:12:51;;;;;;;2.88;2.00;;;22.10;66.40;;;;;;6217650;28;20049;-67
2023/09/12 05:15:52;;;;;;;1.83;1.48;;;22.10;66.40;;;;;;6233388;28;20822;-67
2023/09/12 05:18:54;;;;;;;1.83;1.50;;;22.10;66.40;;;;;;6241734;28;20025;-67
2023/09/12 05:21:55;;;;;;;2.47;1.73;;;22.10;66.40;;;;;;6233314;28;20025;-67
2023/09/12 05:24:55;;;;;;;2.83;1.90;;;22.10;66.40;;;;;;6236920;28;20218;-66
2023/09/12 05:27:56;;;;;;;2.55;1.90;;;22.10;66.40;;;;;;6234774;28;20030;-67
2023/09/12 05:30:57;;;;;;;2.42;1.92;;;22.10;66.40;;;;;;6234369;28;20029;-67
2023/09/12 05:33:58;;;;;;;2.70;1.98;;;22.10;66.40;;;;;;6245463;28;20079;-67
2023/09/12 05:36:58;;;;;;;2.80;2.00;;;22.10;66.40;;;;;;6233165;28;20021;-67
2023/09/12 05:39:59;;;;;;;3.35;2.05;;;22.10;66.50;;;;;;6240197;28;20030;-66
2023/09/12 05:42:59;;;;;;;2.92;1.92;;;22.10;66.40;;;;;;6238227;28;20029;-67
2023/09/12 05:46:00;;;;;;;2.03;1.63;;;22.10;66.40;;;;;;6234857;28;20109;-67
2023/09/12 05:49:00;;;;;;;2.97;2.30;;;22.10;66.50;;;;;;6237781;28;20037;-67
2023/09/12 05:52:02;;;;;;;4.47;2.28;;;22.10;66.40;;;;;;6236610;28;20029;-67
2023/09/12 05:55:04;;;;;;;2.10;1.80;;;22.10;66.40;;;;;;6245026;28;20551;-67
2023/09/12 05:58:05;;;;;;;5.80;2.40;;;22.10;66.40;;;;;;6231454;28;20446;-67
2023/09/12 06:01:06;;;;;;;6.97;2.13;;;22.20;66.50;;;;;;6219573;28;20082;-67
2023/09/12 06:04:06;;;;;;;5.30;1.80;;;22.20;66.70;;;;;;6233589;28;20109;-67
2023/09/12 06:07:07;;;;;;;3.08;2.38;;;22.20;66.50;;;;;;6231933;28;20774;-68
2023/09/12 06:10:08;;;;;;;4.10;2.25;;;22.30;66.30;;;;;;6242098;28;20029;-67
2023/09/12 06:13:09;;;;;;;3.85;2.20;;;22.30;66.30;;;;;;6226400;28;20107;-67
2023/09/12 06:16:10;;;;;;;3.15;2.30;;;22.30;66.30;;;;;;6238880;28;20283;-67
2023/09/12 06:19:10;;;;;;;2.78;2.17;;;22.30;66.30;;;;;;6238892;28;20472;-67
2023/09/12 06:22:11;;;;;;;7.10;2.33;;;22.30;66.40;;;;;;6233080;28;20116;-67
2023/09/12 06:25:11;;;;;;;2.83;2.20;;;22.30;67.10;;;;;;6240409;28;20128;-67
2023/09/12 06:28:12;;;;;;;3.30;2.42;;;22.40;66.70;;;;;;6233644;28;20037;-68
2023/09/12 06:31:12;;;;;;;6.93;2.70;;;22.30;66.60;;;;;;6240209;28;20013;-67
2023/09/12 06:34:13;;;;;;;4.63;2.30;;;22.30;66.60;;;;;;6223999;28;20022;-68
2023/09/12 06:37:14;;;;;;;3.55;2.55;;;22.20;66.60;;;;;;6240563;28;20071;-67
2023/09/12 06:40:14;;;;;;;2.92;2.00;;;22.30;66.80;;;;;;6238184;28;20041;-68
2023/09/12 06:43:15;;;;;;;2.45;1.92;;;22.30;66.70;;;;;;6235908;28;20041;-67
2023/09/12 06:46:17;;;;;;;4.68;1.98;;;22.20;66.60;;;;;;6238696;28;20713;-68
2023/09/12 06:49:18;;;;;;;2.58;1.80;;;22.20;66.60;;;;;;6236772;28;20026;-67
2023/09/12 06:52:18;;;;;;;2.20;1.90;;;22.20;66.60;;;;;;6232860;28;20378;-67
2023/09/12 06:55:19;;;;;;;3.28;2.05;;;22.20;66.70;;;;;;6232550;28;20091;-67
2023/09/12 06:58:19;;;;;;;3.65;2.45;;;22.20;66.60;;;;;;6241211;28;20022;-67
2023/09/12 07:01:20;;;;;;;2.55;2.08;;;22.20;66.60;;;;;;6237657;28;20069;-67
2023/09/12 07:04:21;;;;;;;3.28;2.30;;;22.20;66.60;;;;;;6231667;28;20026;-67
2023/09/12 07:07:23;;;;;;;2.60;2.05;;;22.20;66.60;;;;;;6237870;28;20092;-67
2023/09/12 07:10:23;;;;;;;2.88;2.20;;;22.20;66.60;;;;;;6235878;28;20120;-68
2023/09/12 07:13:24;;;;;;;4.82;2.00;;;22.20;66.60;;;;;;6240411;28;20056;-67
2023/09/12 07:16:25;;;;;;;3.90;2.22;;;22.20;66.60;;;;;;6222865;28;20087;-67
2023/09/12 07:19:25;;;;;;;2.20;1.80;;;22.20;66.60;;;;;;6213661;28;20030;-68
2023/09/12 07:22:26;;;;;;;2.95;2.03;;;22.20;66.60;;;;;;6228003;28;20108;-68
2023/09/12 07:25:26;;;;;;;1.98;1.70;;;22.20;66.60;;;;;;6229434;28;20026;-67
2023/09/12 07:28:27;;;;;;;2.25;1.80;;;22.20;66.60;;;;;;6236161;28;20022;-67
2023/09/12 07:31:29;;;;;;;3.10;2.28;;;22.20;66.60;;;;;;6241181;28;20029;-68
2023/09/12 07:34:29;;;;;;;2.78;2.22;;;22.20;66.60;;;;;;6237517;28;20041;-68
2023/09/12 07:37:30;;;;;;;2.42;1.90;;;22.20;66.60;;;;;;6239049;28;20057;-68
2023/09/12 07:40:30;;;;;;;2.22;1.88;;;22.20;66.60;;;;;;6235926;28;20072;-68
2023/09/12 07:43:31;;;;;;;2.95;2.08;;;22.20;66.60;;;;;;6242463;28;20436;-68
2023/09/12 07:46:32;;;;;;;2.95;2.03;;;22.20;66.60;;;;;;6236262;28;20030;-68
2023/09/12 07:49:32;;;;;;;2.45;1.90;;;22.20;66.60;;;;;;6237245;28;20037;-68
2023/09/12 07:52:33;;;;;;;3.00;1.80;;;22.20;66.60;;;;;;6233710;28;20109;-67
2023/09/12 07:55:45;;;;;;;2.10;1.77;;;22.20;66.60;;;;;;6235816;28;20025;-67
2023/09/12 07:58:45;;;;;;;2.80;2.08;;;22.20;66.60;;;;;;6236325;28;20029;-67
2023/09/12 08:01:46;;;;;;;2.00;1.77;;;22.20;66.60;;;;;;6236002;28;20041;-68
2023/09/12 08:04:49;;;;;;;1.90;1.70;;;22.20;66.60;;;;;;6229399;28;20038;-68
2023/09/12 08:07:50;;;;;;;2.50;1.98;;;22.20;66.60;;;;;;6237326;28;20030;-67
2023/09/12 08:10:50;;;;;;;2.08;1.80;;;22.20;66.60;;;;;;6235838;28;20447;-67
2023/09/12 08:13:51;;;;;;;3.70;2.15;;;22.20;66.60;;;;;;6236837;28;20084;-67
2023/09/12 08:16:51;;;;;;;2.42;1.90;;;22.20;66.60;;;;;;6236215;28;20021;-67
2023/09/12 08:19:52;;;;;;;3.05;2.25;;;22.20;66.60;;;;;;6230470;28;20558;-68
2023/09/12 08:22:52;;;;;;;2.53;2.05;;;22.20;66.60;;;;;;6240331;28;20033;-68
2023/09/12 08:25:53;;;;;;;2.00;1.75;;;22.20;66.60;;;;;;6235654;28;20026;-67
2023/09/12 08:28:54;;;;;;;2.17;1.92;;;22.20;66.60;;;;;;6239846;28;20022;-67
2023/09/12 08:31:54;;;;;;;2.50;1.92;;;22.10;66.50;;;;;;6236258;28;20022;-68
2023/09/12 08:34:55;;;;;;;2.65;1.88;;;22.20;66.60;;;;;;6240282;28;20022;-67
2023/09/12 08:37:56;;;;;;;3.13;2.10;;;22.20;66.60;;;;;;6233071;28;20093;-67
2023/09/12 08:40:57;;;;;;;1.80;1.70;;;22.10;66.50;;;;;;6235525;28;20022;-67
2023/09/12 08:43:57;;;;;;;2.10;1.70;;;22.20;66.60;;;;;;6241733;28;20512;-68
2023/09/12 08:47:00;;;;;;;3.22;2.17;;;22.20;66.60;;;;;;6235281;28;20033;-68
2023/09/12 08:50:03;;;;;;;1.80;1.63;;;22.20;66.60;;;;;;6241788;28;20025;-67
2023/09/12 08:53:04;;;;;;;2.55;1.88;;;22.20;66.60;;;;;;6229517;28;20026;-67
2023/09/12 08:56:05;;;;;;;2.05;1.80;;;22.20;66.60;;;;;;6239082;28;20634;-67
2023/09/12 08:59:06;;;;;;;2.28;1.75;;;22.20;66.60;;;;;;6228823;28;20056;-67
2023/09/12 09:02:08;;;;;;;2.08;1.85;;;22.20;66.60;;;;;;6235940;28;20121;-67
2023/09/12 09:05:11;;;;;;;3.22;1.80;;;22.20;66.60;;;;;;6241260;28;20477;-68
2023/09/12 09:08:13;;;;;;;2.08;1.88;;;22.20;66.60;;;;;;6239587;28;20029;-67
2023/09/12 09:11:14;;;;;;;2.20;1.85;;;22.20;66.60;;;;;;6240502;28;20022;-67
2023/09/12 09:14:14;;;;;;;1.70;1.60;;;22.10;66.50;;;;;;6232997;28;20060;-67
2023/09/12 09:17:15;;;;;;;2.13;1.63;;;22.20;66.60;;;;;;6240428;28;20030;-68
2023/09/12 09:20:45;;;;;;;2.10;1.75;;;22.20;66.60;;;;;;6242931;28;20028;-67
2023/09/12 09:23:46;;;;;;;2.15;1.75;;;22.20;66.60;;;;;;6237627;28;20053;-67
2023/09/12 09:26:51;;;;;;;1.92;1.63;;;22.10;66.60;;;;;;6243431;28;20527;-67
2023/09/12 09:29:52;;;;;;;;;;;22.20;66.60;;;;;;6236726;28;20033;-67
2023/09/12 09:32:54;;;;;;;3.17;1.80;;;22.20;66.70;;;;;;6240061;28;19909;-67
2023/09/12 09:36:04;;;;;;;2.05;1.40;;;22.20;66.70;;;;;;6238293;28;20049;-67
2023/09/12 09:39:05;;;;;;;2.22;1.88;;;22.20;66.70;;;;;;6237394;28;20018;-68
2023/09/12 09:42:10;;;;;;;1.98;1.60;;;22.20;66.70;;;;;;6246649;28;20480;-67
2023/09/12 09:45:11;;;;;;;2.63;1.70;;;22.10;66.50;;;;;;6239981;28;20104;-68
2023/09/12 09:48:19;;;;;;;2.22;1.80;;;22.10;66.60;;;;;;6245400;28;20025;-68
2023/09/12 09:51:19;;;;;;;3.78;1.63;;;22.10;66.60;;;;;;6237299;28;20686;-68
2023/09/12 09:54:24;;;;;;;1.98;1.70;;;22.10;66.60;;;;;;6239713;28;20101;-67
2023/09/12 09:57:26;;;;;;;2.25;1.80;;;22.10;66.60;;;;;;6244800;28;20026;-68
2023/09/12 10:00:29;;;;;;;1.92;1.70;;;22.10;66.60;;;;;;6231320;28;20091;-67
2023/09/12 10:03:31;;;;;;;1.77;1.50;;;22.10;66.60;;;;;;6242838;28;20128;-68
2023/09/12 10:06:36;;;;;;;2.05;1.55;;;22.10;66.60;;;;;;6236867;28;20033;-68
2023/09/12 10:09:37;;;;;;;1.70;1.52;;;22.10;66.60;;;;;;6226763;28;20596;-67
2023/09/12 10:12:48;;;;;;;2.22;1.55;;;22.10;66.60;;;;;;6241437;28;20403;-67
2023/09/12 10:15:50;;;;;;;2.63;1.60;;;22.10;66.60;;;;;;6231205;28;20112;-67
2023/09/12 10:19:11;;;;;;;1.90;1.60;;;22.10;66.60;;;;;;6239629;28;20103;-68
2023/09/12 10:22:23;;;;;;;1.95;1.58;;;22.10;66.60;;;;;;6245769;28;20044;-68
2023/09/12 10:25:24;;;;;;;2.30;1.73;;;22.10;66.60;;;;;;6238824;28;20029;-67
2023/09/12 10:28:26;;;;;;;1.50;1.33;;;22.10;66.60;;;;;;6246640;28;20061;-67
2023/09/12 10:31:28;;;;;;;3.10;1.80;;;22.10;66.60;;;;;;6238698;28;20029;-67
2023/09/12 10:34:31;;;;;;;1.73;1.35;;;22.10;66.60;;;;;;6243320;28;20054;-67
2023/09/12 10:37:35;;;;;;;2.05;1.63;;;22.10;66.60;;;;;;6240431;28;20416;-67
2023/09/12 10:40:38;;;;;;;2.20;1.75;;;22.10;66.60;;;;;;6238511;28;20523;-68
2023/09/12 10:43:39;;;;;;;2.00;1.50;;;22.10;66.60;;;;;;6246533;28;20121;-67
2023/09/12 10:46:41;;;;;;;1.80;1.50;;;22.10;66.60;;;;;;6240013;28;20025;-67
2023/09/12 10:49:45;;;;;;;1.77;1.58;;;22.10;66.60;;;;;;6239861;28;20033;-68
2023/09/12 10:52:46;;;;;;;2.00;1.70;;;22.10;66.60;;;;;;6239907;28;20026;-67
2023/09/12 10:56:15;;;;;;;1.85;1.60;;;22.10;67.50;;;;;;6232994;28;20032;-67
2023/09/12 10:59:15;;;;;;;1.70;1.35;;;22.10;66.50;;;;;;6243501;28;20037;-67
2023/09/12 11:02:34;;;;;;;2.08;1.40;;;22.10;66.50;;;;;;6239330;28;20049;-67
2023/09/12 11:05:36;;;;;;;4.63;1.55;;;22.10;66.60;;;;;;6232477;28;20049;-67
2023/09/12 11:08:40;;;;;;;3.88;1.77;;;22.10;66.50;;;;;;6243629;28;20033;-68
2023/09/12 11:11:48;;;;;;;2.10;1.80;;;22.10;66.60;;;;;;6237428;28;20024;-68
2023/09/12 11:15:06;;;;;;;1.42;1.33;;;22.10;66.60;;;;;;6241788;28;20053;-68
2023/09/12 11:18:06;;;;;;;1.98;1.67;;;22.10;66.60;;;;;;6239302;28;20028;-68
2023/09/12 11:21:07;;;;;;;2.35;1.60;;;22.10;66.60;;;;;;6242473;28;20022;-68
2023/09/12 11:24:08;;;;;;;2.42;1.77;;;22.10;66.60;;;;;;6245481;28;20030;-67
2023/09/12 11:27:09;;;;;;;1.92;1.50;;;22.10;66.60;;;;;;6232068;28;20022;-67
2023/09/12 11:30:10;;;;;;;2.13;1.73;;;22.10;66.60;;;;;;6245703;28;20594;-67
2023/09/12 11:33:11;;;;;;;1.77;1.55;;;22.10;66.60;;;;;;6240609;28;20022;-68
2023/09/12 11:36:18;;;;;;;2.53;1.80;;;22.10;66.60;;;;;;6239205;28;20022;-67
2023/09/12 11:39:24;;;;;;;2.10;1.52;;;22.10;66.60;;;;;;6240137;28;20022;-67
2023/09/12 11:42:26;;;;;;;2.28;1.73;;;22.10;66.60;;;;;;6230412;28;20061;-67
2023/09/12 11:45:27;;;;;;;2.13;1.60;;;22.10;66.60;;;;;;6233416;28;20032;-67
2023/09/12 11:48:29;;;;;;;1.85;1.70;;;22.10;66.60;;;;;;6234872;28;20105;-67
2023/09/12 11:51:30;;;;;;;2.10;1.70;;;22.10;66.60;;;;;;6236056;28;20096;-68
2023/09/12 11:54:31;;;;;;;1.67;1.35;;;22.10;66.60;;;;;;6241632;28;20029;-67
2023/09/12 11:57:32;;;;;;;1.92;1.58;;;22.10;66.60;;;;;;6234009;28;20079;-67
2023/09/12 12:00:33;;;;;;;1.45;1.10;;;22.10;66.60;;;;;;6244496;28;20026;-68
2023/09/12 12:03:34;;;;;;;1.77;1.48;;;22.10;66.60;;;;;;6228016;28;20040;-68
2023/09/12 12:06:35;;;;;;;2.05;1.40;;;22.10;66.60;;;;;;6239975;28;20056;-67
2023/09/12 12:09:36;;;;;;;1.58;1.48;;;22.10;66.60;;;;;;6234186;28;20059;-67
2023/09/12 12:12:36;;;;;;;2.08;1.58;;;22.10;66.60;;;;;;6228700;28;20520;-67
2023/09/12 12:15:37;;;;;;;1.90;1.60;;;22.10;66.60;;;;;;6238272;28;20036;-68
2023/09/12 12:18:39;;;;;;;2.00;1.58;;;22.10;66.60;;;;;;6228775;28;20026;-67
2023/09/12 12:21:41;;;;;;;2.22;1.52;;;22.10;66.60;;;;;;6238596;28;20400;-67
2023/09/12 12:24:46;;;;;;;1.80;1.60;;;22.10;66.60;;;;;;6234943;28;20583;-67
2023/09/12 12:27:47;;;;;;;1.70;1.50;;;22.10;66.60;;;;;;6229510;28;20117;-68
2023/09/12 12:30:51;;;;;;;1.88;1.40;;;22.10;66.70;;;;;;6226221;28;20067;-67
2023/09/12 12:33:56;;;;;;;1.80;1.60;;;22.10;66.60;;;;;;6245617;28;20029;-67
2023/09/12 12:36:57;;;;;;;1.77;1.45;;;22.10;66.60;;;;;;6233497;28;20034;-67
2023/09/12 12:39:58;;;;;;;1.83;1.40;;;22.10;66.60;;;;;;6239325;28;20500;-67
2023/09/12 12:42:59;;;;;;;1.30;1.20;;;22.10;66.60;;;;;;6244482;28;20453;-67
2023/09/12 12:46:00;;;;;;;2.10;1.48;;;22.10;66.60;;;;;;6248081;28;20078;-67
2023/09/12 12:49:00;;;;;;;1.70;1.52;;;22.10;66.60;;;;;;6237219;28;20025;-67
2023/09/12 12:52:02;;;;;;;1.70;1.27;;;22.10;66.60;;;;;;6234009;28;20025;-67
2023/09/12 12:55:10;;;;;;;1.50;1.30;;;22.10;66.60;;;;;;6238954;28;20033;-67
2023/09/12 12:58:11;;;;;;;1.80;1.50;;;22.10;66.60;;;;;;6241228;28;20041;-67
2023/09/12 13:01:12;;;;;;;1.60;1.33;;;22.10;66.60;;;;;;6241127;28;20530;-67
2023/09/12 13:04:12;;;;;;;1.83;1.48;;;22.10;66.60;;;;;;6231508;28;20080;-67
2023/09/12 13:07:13;;;;;;;1.58;1.10;;;22.10;66.60;;;;;;6237396;28;20034;-67
2023/09/12 13:10:13;;;;;;;1.50;1.40;;;22.10;66.60;;;;;;6233195;28;20026;-68
2023/09/12 13:13:14;;;;;;;1.50;1.35;;;22.10;66.60;;;;;;6240053;28;20050;-67
2023/09/12 13:16:15;;;;;;;1.35;1.10;;;22.10;66.60;;;;;;6238583;28;20030;-67
2023/09/12 13:19:16;;;;;;;1.27;1.15;;;22.10;66.60;;;;;;6238334;28;20084;-67
2023/09/12 13:22:16;;;;;;;1.45;1.20;;;22.10;66.60;;;;;;6241695;28;20034;-67
2023/09/12 13:25:17;;;;;;;1.50;1.40;;;22.10;66.60;;;;;;6237701;28;20424;-67
2023/09/12 13:28:18;;;;;;;2.10;1.25;;;22.10;66.60;;;;;;6236558;28;20109;-67
2023/09/12 13:31:18;;;;;;;1.48;1.27;;;22.10;66.60;;;;;;6238696;28;20032;-67
2023/09/12 13:34:19;;;;;;;1.50;1.33;;;22.10;66.60;;;;;;6231675;28;20037;-67
2023/09/12 13:37:21;;;;;;;1.50;1.23;;;22.10;66.60;;;;;;6227329;28;20022;-67
2023/09/12 13:40:21;;;;;;;1.33;1.23;;;22.10;66.60;;;;;;6236796;28;20060;-67
2023/09/12 13:43:22;;;;;;;1.67;1.27;;;22.10;66.70;;;;;;6237460;28;20033;-67
2023/09/12 13:46:23;;;;;;;1.55;1.45;;;22.10;66.60;;;;;;6241106;28;20018;-67
2023/09/12 13:49:24;;;;;;;1.80;1.50;;;22.10;66.60;;;;;;6238636;28;20026;-67
2023/09/12 13:52:27;;;;;;;1.63;1.33;;;22.10;66.60;;;;;;6233359;28;20025;-66
2023/09/12 13:55:28;;;;;;;9.45;1.45;;;22.20;67.70;;;;;;6245651;28;20026;-68
2023/09/12 13:58:28;;;;;;;22.98;2.97;;;22.30;67.50;;;;;;6235282;28;20458;-67
2023/09/12 14:01:29;;;;;;;7.15;1.52;;;22.20;69.40;;;;;;6241827;28;20041;-66
2023/09/12 14:04:30;;;;;;;12.65;1.60;;;22.30;70.80;;;;;;6235237;28;20025;-67
2023/09/12 14:07:30;;;;;;;16.20;2.25;;;22.40;70.10;;;;;;6238429;28;20044;-66
2023/09/12 14:10:31;;;;;;;9.38;1.98;;;22.40;70.60;;;;;;6239148;28;20051;-68
2023/09/12 14:13:31;;;;;;;15.38;2.00;;;22.40;70.80;;;;;;6226553;28;20088;-68
2023/09/12 14:16:32;;;;;;;5.20;1.65;;;22.50;70.10;;;;;;6238363;28;20032;-67
2023/09/12 14:19:34;;;;;;;4.30;1.55;;;22.50;69.60;;;;;;6239559;28;20028;-67
2023/09/12 14:22:35;;;;;;;5.00;1.52;;;22.40;66.20;;;;;;6240778;28;20135;-67
2023/09/12 14:25:36;;;;;;;3.65;1.48;;;22.40;65.00;;;;;;6230710;28;20063;-67
2023/09/12 14:28:36;;;;;;;4.93;1.77;;;22.40;64.30;;;;;;6229720;28;20033;-67
2023/09/12 14:31:37;;;;;;;3.38;1.52;;;22.50;64.10;;;;;;6238458;28;20056;-67
2023/09/12 14:34:38;;;;;;;4.57;2.25;;;22.70;63.10;;;;;;6232095;28;20026;-67
2023/09/12 14:37:39;;;;;;;9.98;2.00;;;22.80;63.00;;;;;;6237586;28;20607;-67
2023/09/12 14:40:39;;;;;;;18.02;1.67;;;22.70;62.60;;;;;;6240380;28;20022;-68
2023/09/12 14:43:40;;;;;;;41.20;3.78;;;22.70;63.70;;;;;;6232432;28;20026;-68
2023/09/12 14:46:41;;;;;;;52.67;3.42;;;23.10;63.60;;;;;;6237676;28;20076;-67
2023/09/12 14:49:41;;;;;;;26.38;2.65;;;23.10;62.00;;;;;;6236701;28;20113;-67
2023/09/12 14:52:43;;;;;;;37.47;2.72;;;23.20;61.10;;;;;;6240042;28;20022;-67
2023/09/12 14:55:43;;;;;;;17.40;2.88;;;23.20;61.50;;;;;;6235335;28;20048;-68
2023/09/12 14:58:44;;;;;;;20.52;2.70;;;23.10;61.20;;;;;;6237316;28;20500;-68
2023/09/12 15:01:45;;;;;;;17.95;2.30;;;23.10;61.50;;;;;;6237194;28;20034;-67
2023/09/12 15:04:45;;;;;;;21.52;2.53;;;23.00;61.80;;;;;;6236449;28;20024;-68
2023/09/12 15:07:46;;;;;;;18.70;2.58;;;23.00;61.80;;;;;;6244463;28;20384;-68
2023/09/12 15:10:46;;;;;;;10.57;2.35;;;23.00;61.00;;;;;;6229330;28;20549;-68
2023/09/12 15:13:47;;;;;;;9.13;1.67;;;23.00;61.30;;;;;;6229087;28;20085;-68
2023/09/12 15:16:48;;;;;;;10.23;2.50;;;23.00;61.20;;;;;;6237480;28;20392;-68
2023/09/12 15:19:48;;;;;;;10.57;1.95;;;23.00;60.90;;;;;;6233854;28;20048;-67
2023/09/12 15:22:49;;;;;;;7.10;2.17;;;22.90;60.60;;;;;;6244276;28;20064;-68
2023/09/12 15:25:50;;;;;;;14.30;2.30;;;23.00;60.60;;;;;;6240782;28;20091;-68
2023/09/12 15:28:51;;;;;;;9.50;2.30;;;23.00;60.80;;;;;;6244868;28;20025;-68
2023/09/12 15:31:52;;;;;;;22.45;2.08;;;23.00;60.80;;;;;;6236160;28;20472;-68
2023/09/12 15:34:53;;;;;;;31.27;2.38;;;23.10;60.60;;;;;;6235592;28;20018;-67
2023/09/12 15:37:53;;;;;;;9.52;2.28;;;23.20;60.50;;;;;;6244402;28;20018;-67
2023/09/12 15:40:56;;;;;;;15.57;1.90;;;23.20;60.00;;;;;;6235975;28;20021;-67
2023/09/12 15:43:56;;;;;;;13.80;2.00;;;23.20;60.10;;;;;;6227966;28;20315;-67